Time;durP1;ratioP1;P1;durP2;ratioP2;P2;SDS_P1;SDS_P2;PMS_P1;PMS_P2;Temp;Humidity;BMP_temperature;BMP_pressure;BME280_temperature;BME280_humidity;BME280_pressure;Samples;Min_cycle;Max_cycle;Signal;HPM_P1;HPM_P2
2021/01/21 00:01:16;;;;;;;33.48;15.28;;;;;;;-0.60;42.85;101320.38;1832174;78;21172;-77
2021/01/21 00:03:43;;;;;;;34.53;14.38;;;;;;;-0.61;43.04;101319.98;1832195;78;21109;-75
2021/01/21 00:06:12;;;;;;;42.25;19.25;;;;;;;-0.62;43.13;101314.80;1842099;76;21429;-75
2021/01/21 00:08:41;;;;;;;40.60;18.25;;;;;;;-0.65;43.23;101317.09;1861723;77;21156;-75
2021/01/21 00:11:10;;;;;;;38.00;18.02;;;;;;;-0.63;43.43;101311.32;1856990;76;21128;-76
2021/01/21 00:13:39;;;;;;;43.20;19.80;;;;;;;-0.62;43.54;101320.91;1861174;76;21196;-75
2021/01/21 00:16:06;;;;;;;52.00;23.95;;;;;;;-0.58;43.55;101317.23;1830165;76;21710;-76
2021/01/21 00:18:35;;;;;;;34.00;15.75;;;;;;;-0.52;43.47;101313.01;1861601;76;21353;-77
2021/01/21 00:21:02;;;;;;;45.78;22.02;;;;;;;-0.44;43.47;101317.10;1854498;77;20980;-77
2021/01/21 00:23:30;;;;;;;38.17;16.97;;;;;;;-0.45;43.47;101312.30;1863090;77;21121;-77
2021/01/21 00:25:59;;;;;;;44.67;19.55;;;;;;;-0.42;43.55;101313.92;1853452;77;21121;-75
2021/01/21 00:28:27;;;;;;;73.07;28.10;;;;;;;-0.40;43.49;101308.16;1847995;77;21176;-75
2021/01/21 00:30:55;;;;;;;58.15;24.52;;;;;;;-0.41;43.53;101314.31;1859190;77;21795;-76
2021/01/21 00:33:22;;;;;;;46.65;20.37;;;;;;;-0.40;43.58;101309.00;1854093;77;21208;-74
2021/01/21 00:35:51;;;;;;;54.25;21.70;;;;;;;-0.37;43.47;101312.80;1856002;77;21118;-77
2021/01/21 00:38:18;;;;;;;54.00;22.45;;;;;;;-0.39;43.48;101312.48;1857476;77;21106;-76
2021/01/21 00:40:46;;;;;;;38.73;18.82;;;;;;;-0.40;43.59;101304.20;1859176;76;21124;-78
2021/01/21 00:43:14;;;;;;;44.63;19.42;;;;;;;-0.39;43.58;101307.22;1865855;76;21368;-77
2021/01/21 00:45:43;;;;;;;42.40;19.92;;;;;;;-0.35;43.56;101307.02;1865420;76;21658;-75
2021/01/21 00:48:10;;;;;;;29.55;12.58;;;;;;;-0.28;43.49;101311.53;1865498;76;21658;-76
2021/01/21 00:50:39;;;;;;;36.05;17.60;;;;;;;-0.25;43.46;101307.46;1866160;76;21160;-76
2021/01/21 00:53:08;;;;;;;45.05;19.75;;;;;;;-0.27;43.51;101305.38;1865739;76;21172;-75
2021/01/21 00:55:37;;;;;;;44.48;19.25;;;;;;;-0.25;43.55;101302.20;1865991;76;22221;-75
2021/01/21 00:58:05;;;;;;;42.83;19.52;;;;;;;-0.29;43.62;101301.47;1853136;76;21612;-77
2021/01/21 01:00:33;;;;;;;39.35;19.30;;;;;;;-0.36;43.78;101304.00;1852112;76;21145;-77
2021/01/21 01:03:01;;;;;;;41.50;18.23;;;;;;;-0.30;43.83;101302.87;1848335;77;21153;-76
2021/01/21 01:05:30;;;;;;;41.28;20.00;;;;;;;-0.22;43.76;101303.39;1848188;77;21180;-76
2021/01/21 01:07:59;;;;;;;37.78;18.40;;;;;;;-0.21;43.71;101295.88;1848260;77;21818;-76
2021/01/21 01:10:26;;;;;;;41.80;19.20;;;;;;;-0.18;43.61;101301.45;1858207;76;21172;-75
2021/01/21 01:12:55;;;;;;;39.25;18.05;;;;;;;-0.20;43.65;101294.09;1830682;76;21177;-76
2021/01/21 01:15:26;;;;;;;35.88;17.25;;;;;;;-0.19;43.59;101291.37;1800679;76;21164;-78
2021/01/21 01:17:54;;;;;;;35.50;16.65;;;;;;;-0.19;43.74;101280.84;1886934;76;21168;-75
2021/01/21 01:20:22;;;;;;;40.38;20.15;;;;;;;-0.16;43.68;101280.72;1886929;76;21367;-77
2021/01/21 01:22:51;;;;;;;35.40;16.80;;;;;;;-0.14;43.60;101282.80;1887060;76;21596;-76
2021/01/21 01:25:20;;;;;;;35.05;17.05;;;;;;;-0.13;43.54;101267.42;1864270;75;21121;-77
2021/01/21 01:27:49;;;;;;;29.82;15.72;;;;;;;-0.12;43.62;101266.49;1826407;76;21185;-75
2021/01/21 01:30:19;;;;;;;29.45;14.07;;;;;;;-0.10;43.45;101262.46;1862086;75;21722;-77
2021/01/21 01:32:48;;;;;;;34.27;17.40;;;;;;;-0.12;43.40;101258.59;1825869;75;22187;-75
2021/01/21 01:35:17;;;;;;;37.98;16.77;;;;;;;-0.14;43.28;101251.21;1863725;75;21123;-77
2021/01/21 01:37:45;;;;;;;28.73;14.55;;;;;;;-0.08;43.27;101255.37;1856227;75;21151;-76
2021/01/21 01:40:18;;;;;;;30.62;13.85;;;;;;;0.02;43.16;101260.59;1859321;75;21169;-77
2021/01/21 01:42:47;;;;;;;27.10;12.47;;;;;;;0.03;42.94;101260.13;1862146;76;21172;-79
2021/01/21 01:45:17;;;;;;;33.92;16.82;;;;;;;0.06;42.85;101262.62;1855052;77;21350;-77
2021/01/21 01:47:47;;;;;;;29.15;13.30;;;;;;;0.09;42.71;101271.68;1854811;77;21170;-75
2021/01/21 01:50:23;;;;;;;27.02;13.10;;;;;;;0.11;42.69;101261.95;1833149;75;21160;-77
2021/01/21 01:52:53;;;;;;;30.37;15.10;;;;;;;0.12;42.47;101258.38;1870288;75;21563;-78
2021/01/21 01:55:23;;;;;;;31.93;15.28;;;;;;;0.01;42.62;101261.98;1858917;75;21144;-77
2021/01/21 01:57:55;;;;;;;26.95;13.68;;;;;;;-0.04;42.54;101255.62;1861761;75;21727;-77
2021/01/21 02:00:24;;;;;;;26.57;14.80;;;;;;;-0.08;42.56;101247.00;1863732;75;21176;-79
2021/01/21 02:02:54;;;;;;;26.75;13.13;;;;;;;-0.12;42.78;101244.58;1860222;75;21161;-76
2021/01/21 02:05:22;;;;;;;30.68;13.98;;;;;;;-0.10;42.75;101253.25;1861083;76;21161;-77
2021/01/21 02:07:50;;;;;;;28.52;15.38;;;;;;;-0.08;42.62;101258.00;1860193;76;21140;-76
2021/01/21 02:10:18;;;;;;;32.63;16.55;;;;;;;-0.08;42.61;101257.53;1864148;75;21403;-76
2021/01/21 02:13:17;;;;;;;26.02;13.78;;;;;;;-0.11;42.61;101259.45;1859427;76;21180;-77
2021/01/21 02:16:08;;;;;;;25.85;14.07;;;;;;;-0.05;42.65;101249.47;1860875;76;21406;-76
2021/01/21 02:18:57;;;;;;;23.35;12.20;;;;;;;-0.01;42.60;101241.82;1844809;77;21154;-79
2021/01/21 02:21:39;;;;;;;26.23;14.00;;;;;;;-0.02;42.50;101246.70;1862665;76;21607;-76
2021/01/21 02:25:06;;;;;;;30.62;16.25;;;;;;;-0.05;42.48;101250.78;1851781;77;21201;-78
2021/01/21 02:28:02;;;;;;;26.73;13.93;;;;;;;-0.05;42.46;101248.62;1864050;75;21140;-76
2021/01/21 02:30:53;;;;;;;25.15;14.13;;;;;;;-0.04;42.42;101248.57;1855169;76;21573;-77
2021/01/21 02:33:57;;;;;;;26.45;15.13;;;;;;;-0.06;42.49;101241.19;1858211;76;21180;-76
2021/01/21 02:36:30;;;;;;;27.00;12.88;;;;;;;-0.01;42.53;101242.28;1863944;75;21654;-76
2021/01/21 02:39:00;;;;;;;26.80;12.80;;;;;;;0.03;42.46;101221.94;1861533;75;21914;-78
2021/01/21 02:41:28;;;;;;;27.90;15.30;;;;;;;0.06;42.40;101215.22;1838885;75;21212;-76
2021/01/21 02:43:55;;;;;;;22.50;11.88;;;;;;;0.03;42.43;101227.20;1862403;75;21172;-75
2021/01/21 02:46:23;;;;;;;32.15;15.80;;;;;;;0.01;42.47;101221.17;1861359;76;21468;-76
2021/01/21 02:48:53;;;;;;;30.30;16.12;;;;;;;0.00;42.51;101219.00;1861711;76;21193;-77
2021/01/21 02:52:01;;;;;;;29.05;14.47;;;;;;;0.04;42.62;101235.48;1862649;76;21170;-77
2021/01/21 02:54:56;;;;;;;25.88;13.03;;;;;;;0.07;42.50;101230.94;1867927;75;21039;-77
2021/01/21 02:57:43;;;;;;;31.42;14.47;;;;;;;0.10;42.48;101237.85;1859367;77;21196;-77
2021/01/21 03:00:12;;;;;;;27.10;13.90;;;;;;;0.08;42.37;101235.73;1858076;76;21161;-78
2021/01/21 03:02:50;;;;;;;28.57;13.85;;;;;;;0.07;42.40;101223.03;1857116;76;21186;-78
2021/01/21 03:05:18;;;;;;;27.98;14.03;;;;;;;0.10;42.45;101226.00;1858889;76;21259;-77
2021/01/21 03:07:47;;;;;;;31.62;14.60;;;;;;;0.10;42.41;101220.73;1829393;76;21631;-78
2021/01/21 03:10:19;;;;;;;31.07;16.82;;;;;;;0.09;42.50;101220.31;1856012;76;21565;-77
2021/01/21 03:12:55;;;;;;;27.25;13.80;;;;;;;0.12;42.54;101221.03;1858243;76;21141;-77
2021/01/21 03:15:25;;;;;;;28.70;14.78;;;;;;;0.18;42.42;101223.83;1817526;77;21177;-78
2021/01/21 03:18:01;;;;;;;31.62;16.30;;;;;;;0.22;42.43;101222.30;1825327;78;21785;-75
2021/01/21 03:20:30;;;;;;;31.05;15.95;;;;;;;0.19;42.46;101226.87;1890125;75;21148;-77
2021/01/21 03:22:59;;;;;;;30.23;15.05;;;;;;;0.21;42.51;101221.06;1861271;76;21191;-77
2021/01/21 03:25:29;;;;;;;27.27;14.55;;;;;;;0.24;42.52;101224.88;1858362;75;21465;-78
2021/01/21 03:27:59;;;;;;;28.85;15.65;;;;;;;0.29;42.55;101224.19;1883637;75;21596;-75
2021/01/21 03:30:29;;;;;;;32.78;17.30;;;;;;;0.35;42.38;101218.61;1890204;75;21354;-75
2021/01/21 03:32:59;;;;;;;29.27;15.83;;;;;;;0.37;42.43;101219.41;1889992;75;21196;-76
2021/01/21 03:35:31;;;;;;;30.60;16.35;;;;;;;0.37;42.53;101215.92;1889978;75;21132;-76
2021/01/21 03:37:58;;;;;;;31.30;16.00;;;;;;;0.40;42.59;101221.88;1890223;75;21157;-75
2021/01/21 03:40:28;;;;;;;26.85;14.30;;;;;;;0.40;42.64;101211.33;1890235;75;21152;-73
2021/01/21 03:42:57;;;;;;;30.43;15.85;;;;;;;0.37;42.84;101214.14;1890106;75;22688;-75
2021/01/21 03:45:30;;;;;;;29.77;15.93;;;;;;;0.40;42.96;101213.12;1889413;75;21484;-75
2021/01/21 03:47:59;;;;;;;33.20;16.77;;;;;;;0.44;43.01;101214.21;1890058;75;21157;-78
2021/01/21 03:50:27;;;;;;;34.55;17.92;;;;;;;0.42;43.26;101212.13;1889914;75;21140;-77
2021/01/21 03:52:56;;;;;;;31.77;15.48;;;;;;;0.46;43.37;101213.69;1878068;75;21164;-76
2021/01/21 03:55:26;;;;;;;23.27;12.50;;;;;;;0.54;43.46;101215.08;1862821;76;21349;-77
2021/01/21 03:57:59;;;;;;;29.37;15.93;;;;;;;0.61;43.56;101207.27;1868302;75;21182;-75
2021/01/21 04:00:28;;;;;;;37.40;19.30;;;;;;;0.66;43.70;101206.57;1860331;75;21152;-75
2021/01/21 04:02:58;;;;;;;29.15;13.28;;;;;;;0.66;43.97;101206.57;1865640;76;21801;-77
2021/01/21 04:05:29;;;;;;;31.15;15.45;;;;;;;0.70;44.15;101205.49;1888488;75;21136;-76
2021/01/21 04:07:57;;;;;;;37.90;19.60;;;;;;;0.67;44.48;101213.55;1862427;76;21854;-76
2021/01/21 04:10:25;;;;;;;33.90;17.05;;;;;;;0.62;44.64;101211.61;1831727;75;21164;-75
2021/01/21 04:12:57;;;;;;;33.38;16.10;;;;;;;0.68;44.78;101217.44;1851231;75;21686;-77
2021/01/21 04:15:26;;;;;;;45.75;20.77;;;;;;;0.72;44.88;101206.25;1854291;75;21183;-77
2021/01/21 04:17:54;;;;;;;37.35;17.82;;;;;;;0.74;45.00;101214.95;1854397;77;21187;-76
2021/01/21 04:20:24;;;;;;;32.42;15.90;;;;;;;0.76;45.20;101224.95;1876763;76;21315;-77
2021/01/21 04:22:53;;;;;;;27.05;13.50;;;;;;;0.84;45.11;101229.38;1886877;76;21600;-77
2021/01/21 04:25:21;;;;;;;27.20;12.95;;;;;;;0.85;45.17;101217.05;1866021;76;21042;-77
2021/01/21 04:27:51;;;;;;;36.28;18.30;;;;;;;0.88;45.19;101224.81;1885022;75;21153;-77
2021/01/21 04:30:21;;;;;;;29.35;15.75;;;;;;;0.83;45.21;101213.17;1865833;76;21216;-75
2021/01/21 04:32:50;;;;;;;32.55;17.82;;;;;;;0.85;45.30;101217.05;1886956;76;21897;-77
2021/01/21 04:35:19;;;;;;;30.72;15.32;;;;;;;0.88;45.30;101216.90;1886585;76;21672;-75
2021/01/21 04:37:48;;;;;;;32.65;15.68;;;;;;;0.93;45.32;101214.41;1886622;76;21019;-76
2021/01/21 04:40:22;;;;;;;37.17;19.23;;;;;;;0.98;45.29;101221.62;1885347;76;21100;-74
2021/01/21 04:42:51;;;;;;;37.20;19.60;;;;;;;0.95;45.36;101219.16;1884907;76;21235;-77
2021/01/21 04:45:19;;;;;;;31.42;15.20;;;;;;;0.93;45.54;101217.52;1882436;76;21838;-75
2021/01/21 04:47:48;;;;;;;35.73;18.15;;;;;;;0.92;45.64;101221.94;1882346;76;21200;-75
2021/01/21 04:50:27;;;;;;;30.12;13.83;;;;;;;0.90;45.82;101228.21;1883250;76;21101;-79
2021/01/21 04:53:09;;;;;;;39.38;19.12;;;;;;;0.89;46.02;101224.72;1882368;76;21101;-75
2021/01/21 04:55:59;;;;;;;34.45;18.65;;;;;;;0.88;46.09;101215.11;1883114;76;21090;-76
2021/01/21 04:58:50;;;;;;;32.63;16.05;;;;;;;0.95;46.27;101216.95;1878628;76;21191;-77
2021/01/21 05:01:19;;;;;;;33.48;16.42;;;;;;;0.94;46.34;101213.47;1828431;78;21156;-75
2021/01/21 05:03:48;;;;;;;38.85;19.77;;;;;;;0.91;46.55;101207.05;1860073;75;21341;-75
2021/01/21 05:06:36;;;;;;;31.10;16.17;;;;;;;0.86;46.76;101205.09;1853508;77;21113;-76
2021/01/21 05:09:07;;;;;;;34.03;15.58;;;;;;;0.87;46.91;101208.61;1814220;78;21116;-76
2021/01/21 05:11:36;;;;;;;33.90;17.48;;;;;;;0.86;47.01;101205.09;1831396;76;21377;-76
2021/01/21 05:14:11;;;;;;;41.63;20.52;;;;;;;0.85;47.05;101204.70;1828759;76;21164;-74
2021/01/21 05:16:43;;;;;;;40.03;18.40;;;;;;;0.81;47.22;101196.56;1839378;76;21398;-74
2021/01/21 05:19:14;;;;;;;36.80;16.65;;;;;;;0.82;47.37;101196.97;1853151;76;21561;-75
2021/01/21 05:21:55;;;;;;;39.10;20.97;;;;;;;0.88;47.45;101199.29;1839901;77;21090;-74
2021/01/21 05:24:41;;;;;;;32.13;14.35;;;;;;;0.90;47.51;101200.52;1851494;75;21345;-75
2021/01/21 05:27:43;;;;;;;38.08;17.70;;;;;;;0.98;47.66;101203.63;1791628;79;23067;-76
2021/01/21 05:30:16;;;;;;;31.50;16.37;;;;;;;0.92;47.83;101198.20;1746986;82;21189;-76
2021/01/21 05:32:44;;;;;;;32.53;15.20;;;;;;;0.93;47.90;101204.33;1780349;80;21207;-75
2021/01/21 05:35:28;;;;;;;34.15;16.07;;;;;;;0.96;47.94;101195.80;1840649;77;23377;-75
2021/01/21 05:37:58;;;;;;;42.65;21.52;;;;;;;0.94;48.02;101200.75;1807049;77;21208;-74
2021/01/21 05:40:38;;;;;;;38.30;19.70;;;;;;;0.99;47.94;101194.30;1788942;77;22639;-75
2021/01/21 05:43:09;;;;;;;37.73;16.75;;;;;;;1.10;47.82;101197.72;1773055;77;21195;-74
2021/01/21 05:45:48;;;;;;;28.27;14.23;;;;;;;1.22;47.67;101198.38;1723395;79;21199;-76
2021/01/21 05:48:18;;;;;;;35.90;18.30;;;;;;;1.28;47.66;101205.15;1744249;79;21641;-75
2021/01/21 05:50:47;;;;;;;40.38;19.27;;;;;;;1.17;47.83;101191.17;1761574;79;21224;-76
2021/01/21 05:53:17;;;;;;;44.60;21.02;;;;;;;1.13;48.00;101190.95;1771976;79;21785;-76
2021/01/21 05:55:47;;;;;;;35.68;17.00;;;;;;;1.17;48.07;101191.65;1766661;79;21105;-77
2021/01/21 05:58:15;;;;;;;28.77;15.10;;;;;;;1.27;48.08;101196.82;1765509;79;21128;-76
2021/01/21 06:00:45;;;;;;;27.25;13.90;;;;;;;1.36;48.04;101196.81;1794924;79;21116;-77
2021/01/21 06:03:18;;;;;;;37.35;18.32;;;;;;;1.42;47.93;101190.75;1786069;79;21092;-76
2021/01/21 06:05:53;;;;;;;36.05;16.35;;;;;;;1.44;47.87;101186.23;1805760;79;21383;-76
2021/01/21 06:08:21;;;;;;;31.62;14.93;;;;;;;1.40;47.98;101189.96;1728115;79;21204;-77
2021/01/21 06:10:51;;;;;;;35.40;16.97;;;;;;;1.39;48.00;101189.59;1786455;77;21663;-76
2021/01/21 06:13:19;;;;;;;34.88;17.82;;;;;;;1.34;48.05;101194.27;1791971;79;21334;-76
2021/01/21 06:15:47;;;;;;;28.00;14.13;;;;;;;1.28;48.13;101186.67;1769281;79;21311;-77
2021/01/21 06:18:14;;;;;;;31.70;17.00;;;;;;;1.31;48.20;101191.77;1801710;79;21376;-76
2021/01/21 06:20:44;;;;;;;22.42;11.60;;;;;;;1.29;48.29;101196.30;1765349;78;21188;-75
2021/01/21 06:23:14;;;;;;;35.13;17.75;;;;;;;1.31;48.41;101201.01;1780662;80;21172;-75
2021/01/21 06:25:44;;;;;;;42.20;22.22;;;;;;;1.26;48.57;101201.72;1737623;77;21184;-77
2021/01/21 06:28:12;;;;;;;36.53;17.48;;;;;;;1.31;48.62;101203.65;1799418;77;21198;-76
2021/01/21 06:30:40;;;;;;;30.57;14.58;;;;;;;1.41;48.67;101196.97;1799888;77;21361;-76
2021/01/21 06:33:08;;;;;;;44.15;19.25;;;;;;;1.40;48.79;101197.88;1797808;77;21429;-76
2021/01/21 06:35:42;;;;;;;49.83;24.12;;;;;;;1.40;48.90;101199.20;1795208;77;22189;-76
2021/01/21 06:38:15;;;;;;;40.08;18.55;;;;;;;1.42;49.08;101194.71;1766886;79;21579;-76
2021/01/21 06:40:50;;;;;;;45.40;20.65;;;;;;;1.48;49.17;101198.80;1803147;77;21146;-76
2021/01/21 06:43:19;;;;;;;43.23;20.48;;;;;;;1.52;49.13;101185.36;1785585;77;21345;-75
2021/01/21 06:45:47;;;;;;;43.75;18.77;;;;;;;1.57;49.18;101185.58;1801161;77;21157;-75
2021/01/21 06:48:14;;;;;;;53.38;23.90;;;;;;;1.61;49.27;101192.41;1804802;77;21108;-75
2021/01/21 06:50:43;;;;;;;43.13;18.57;;;;;;;1.61;49.30;101187.97;1804108;78;21188;-76
2021/01/21 06:53:11;;;;;;;53.95;20.72;;;;;;;1.63;49.49;101188.73;1801123;77;21212;-75
2021/01/21 06:55:41;;;;;;;38.30;18.42;;;;;;;1.63;49.55;101192.69;1793081;78;21189;-76
2021/01/21 06:58:09;;;;;;;50.28;22.50;;;;;;;1.71;49.58;101194.92;1806860;77;21139;-75
2021/01/21 07:00:42;;;;;;;45.00;19.20;;;;;;;1.68;49.71;101190.68;1790338;80;21094;-76
2021/01/21 07:03:34;;;;;;;40.55;17.23;;;;;;;1.75;49.84;101185.43;1801626;79;21128;-77
2021/01/21 07:06:02;;;;;;;34.67;16.12;;;;;;;1.73;50.08;101188.64;1790442;79;21085;-77
2021/01/21 07:08:33;;;;;;;33.58;17.40;;;;;;;1.71;50.31;101195.77;1794620;77;21363;-76
2021/01/21 07:11:01;;;;;;;33.83;17.25;;;;;;;1.76;50.31;101186.28;1801431;77;21486;-75
2021/01/21 07:13:29;;;;;;;24.27;12.68;;;;;;;1.87;50.37;101192.31;1801016;77;21104;-76
2021/01/21 07:16:01;;;;;;;32.75;18.62;;;;;;;1.90;50.37;101196.09;1795232;79;21092;-76
2021/01/21 07:18:32;;;;;;;29.63;17.40;;;;;;;1.90;50.41;101197.41;1799623;79;21559;-76
2021/01/21 07:21:20;;;;;;;30.23;16.48;;;;;;;1.94;50.47;101199.80;1798035;79;21344;-76
2021/01/21 07:23:56;;;;;;;21.15;10.95;;;;;;;1.98;50.45;101198.69;1802078;79;21681;-77
2021/01/21 07:26:36;;;;;;;30.85;16.73;;;;;;;2.06;50.49;101200.07;1805456;79;21100;-76
2021/01/21 07:29:32;;;;;;;;;;;;;;;;;;;;;
2021/01/21 07:32:09;;;;;;;32.35;20.12;;;;;;;2.14;50.71;101189.45;1791117;77;27891;-76
2021/01/21 07:34:44;;;;;;;33.48;17.37;;;;;;;2.21;50.67;101192.12;1766998;80;21178;-76
2021/01/21 07:37:25;;;;;;;29.25;15.65;;;;;;;2.29;50.55;101190.38;1772281;78;21345;-75
2021/01/21 07:40:08;;;;;;;41.20;21.68;;;;;;;2.33;50.50;101195.87;1794512;78;21148;-77
2021/01/21 07:42:47;;;;;;;41.90;18.10;;;;;;;2.35;50.58;101199.27;1771836;79;21088;-76
2021/01/21 07:45:23;;;;;;;22.93;10.90;;;;;;;2.38;50.67;101191.17;1802387;77;21138;-77
2021/01/21 07:47:51;;;;;;;44.33;20.72;;;;;;;2.41;50.87;101191.00;1783548;78;21547;-75
2021/01/21 07:50:26;;;;;;;43.02;19.10;;;;;;;2.42;50.86;101178.16;1779661;80;21363;-77
2021/01/21 07:53:01;;;;;;;52.62;21.42;;;;;;;2.44;50.89;101184.20;1783990;78;21132;-77
2021/01/21 07:55:39;;;;;;;44.03;20.32;;;;;;;2.47;50.93;101164.20;1798653;78;21084;-75
2021/01/21 07:58:39;;;;;;;51.48;22.60;;;;;;;2.52;50.94;101182.44;1787661;78;21361;-76
2021/01/21 08:01:09;;;;;;;40.63;18.02;;;;;;;2.50;51.10;101170.64;1791693;79;21092;-77
2021/01/21 08:03:46;;;;;;;50.45;21.77;;;;;;;2.47;51.34;101173.45;1800632;78;21215;-75
2021/01/21 08:06:17;;;;;;;48.73;23.12;;;;;;;2.48;51.44;101176.47;1800454;78;21097;-74
2021/01/21 08:08:50;;;;;;;40.55;19.07;;;;;;;2.43;51.69;101169.75;1744480;80;21119;-78
2021/01/21 08:11:21;;;;;;;36.75;17.17;;;;;;;2.42;51.83;101170.70;1775061;80;21528;-78
2021/01/21 08:14:00;;;;;;;32.42;17.55;;;;;;;2.46;52.03;101173.08;1784749;79;21557;-75
2021/01/21 08:16:29;;;;;;;27.93;14.33;;;;;;;2.48;51.97;101170.33;1791215;79;22125;-75
2021/01/21 08:19:02;;;;;;;38.85;19.05;;;;;;;2.56;51.96;101176.04;1784656;79;21584;-79
2021/01/21 08:21:30;;;;;;;30.25;15.63;;;;;;;2.60;52.01;101178.89;1783019;79;21143;-76
2021/01/21 08:24:08;;;;;;;30.25;16.00;;;;;;;2.63;52.18;101177.84;1792738;79;21496;-77
2021/01/21 08:26:37;;;;;;;34.33;17.48;;;;;;;2.70;52.12;101172.58;1782806;79;21199;-75
2021/01/21 08:29:15;;;;;;;29.07;16.37;;;;;;;2.75;52.09;101166.55;1780474;79;21435;-76
2021/01/21 08:31:47;;;;;;;27.65;14.70;;;;;;;2.74;52.13;101172.79;1789473;79;21113;-76
2021/01/21 08:34:24;;;;;;;26.35;14.30;;;;;;;2.77;52.20;101169.50;1771377;79;21107;-74
2021/01/21 08:37:03;;;;;;;28.23;15.85;;;;;;;2.85;52.16;101163.73;1770571;79;21100;-77
2021/01/21 08:39:31;;;;;;;27.22;12.35;;;;;;;2.88;52.13;101167.52;1791385;78;21100;-74
2021/01/21 08:41:59;;;;;;;29.35;16.87;;;;;;;2.93;52.12;101164.12;1787205;78;21371;-74
2021/01/21 08:44:27;;;;;;;31.90;15.32;;;;;;;2.95;52.18;101155.64;1782049;78;21140;-76
2021/01/21 08:47:08;;;;;;;35.70;18.45;;;;;;;3.08;52.13;101160.17;1863524;75;23288;-75
2021/01/21 08:49:39;;;;;;;36.35;19.07;;;;;;;3.03;52.31;101154.69;1836587;77;21753;-76
2021/01/21 08:52:10;;;;;;;31.52;13.65;;;;;;;3.03;52.34;101157.81;1770060;80;21187;-76
2021/01/21 08:54:52;;;;;;;40.12;19.50;;;;;;;3.09;52.38;101156.13;1793648;78;21188;-74
2021/01/21 08:57:23;;;;;;;38.23;19.17;;;;;;;3.12;52.39;101152.43;1788979;78;21201;-77
2021/01/21 08:59:51;;;;;;;40.12;18.75;;;;;;;3.20;52.35;101150.17;1801131;79;21265;-76
2021/01/21 09:02:42;;;;;;;34.83;17.57;;;;;;;3.31;52.24;101143.25;1760060;79;21531;-76
2021/01/21 09:05:13;;;;;;;38.42;18.02;;;;;;;3.33;52.31;101143.66;1790552;79;21357;-76
2021/01/21 09:07:43;;;;;;;27.30;13.38;;;;;;;3.30;52.37;101138.06;1766928;78;21209;-76
2021/01/21 09:10:15;;;;;;;33.05;17.10;;;;;;;3.38;52.36;101138.45;1761687;80;21240;-76
2021/01/21 09:12:50;;;;;;;29.77;15.30;;;;;;;3.41;52.30;101132.97;1759258;80;21363;-76
2021/01/21 09:15:20;;;;;;;29.87;15.72;;;;;;;3.47;52.29;101129.92;1782649;78;21093;-74
2021/01/21 09:17:56;;;;;;;30.10;17.48;;;;;;;3.54;52.27;101127.73;1761781;78;21476;-77
2021/01/21 09:20:30;;;;;;;34.55;18.75;;;;;;;3.59;52.16;101114.20;1784930;78;21126;-78
2021/01/21 09:23:22;;;;;;;33.42;16.57;;;;;;;3.69;52.13;101114.86;1787753;78;21506;-75
2021/01/21 09:25:50;;;;;;;30.27;14.80;;;;;;;3.84;51.98;101112.17;1756008;80;21220;-76
2021/01/21 09:28:21;;;;;;;32.78;15.83;;;;;;;3.90;51.97;101111.28;1785169;79;22288;-76
2021/01/21 09:30:50;;;;;;;30.55;16.70;;;;;;;3.89;52.03;101110.91;1794061;78;21379;-76
2021/01/21 09:33:19;;;;;;;24.87;14.13;;;;;;;3.95;52.08;101097.73;1744118;79;21176;-76
2021/01/21 09:35:50;;;;;;;26.40;15.20;;;;;;;4.07;52.05;101096.94;1756570;79;21153;-76
2021/01/21 09:38:20;;;;;;;34.78;18.00;;;;;;;4.18;51.97;101100.20;1776558;79;21583;-75
2021/01/21 09:40:50;;;;;;;30.10;17.17;;;;;;;4.24;51.89;101099.81;1781168;79;21109;-74
2021/01/21 09:43:19;;;;;;;29.60;16.93;;;;;;;4.30;51.77;101099.39;1777399;79;22143;-77
2021/01/21 09:45:48;;;;;;;22.35;11.80;;;;;;;4.39;51.65;101097.45;1781232;79;21151;-77
2021/01/21 09:48:16;;;;;;;33.13;17.40;;;;;;;4.45;51.63;101102.81;1773588;79;21114;-75
2021/01/21 09:50:44;;;;;;;38.13;18.87;;;;;;;4.48;51.55;101096.83;1778363;79;21109;-74
2021/01/21 09:53:12;;;;;;;37.23;18.35;;;;;;;4.51;51.53;101100.62;1775918;79;21121;-77
2021/01/21 09:55:40;;;;;;;40.63;19.73;;;;;;;4.63;51.29;101100.73;1783745;79;21244;-75
2021/01/21 09:58:10;;;;;;;40.67;19.85;;;;;;;4.76;50.97;101096.28;1775928;79;21185;-75
2021/01/21 10:00:38;;;;;;;35.30;18.20;;;;;;;4.93;50.56;101094.65;1780559;79;21116;-78
2021/01/21 10:03:06;;;;;;;44.42;22.32;;;;;;;5.00;50.38;101100.40;1775943;79;21126;-75
2021/01/21 10:05:34;;;;;;;39.48;18.57;;;;;;;5.07;50.17;101100.33;1775717;79;21121;-75
2021/01/21 10:08:02;;;;;;;34.85;18.87;;;;;;;5.13;49.96;101095.06;1774792;79;22632;-76
2021/01/21 10:10:30;;;;;;;35.80;18.60;;;;;;;5.15;49.80;101090.02;1779115;79;21157;-75
2021/01/21 10:13:00;;;;;;;53.90;24.85;;;;;;;5.20;49.63;101085.72;1779194;79;21178;-76
2021/01/21 10:15:29;;;;;;;46.18;21.15;;;;;;;5.31;49.39;101091.10;1795417;78;21315;-76
2021/01/21 10:17:57;;;;;;;42.60;21.95;;;;;;;5.46;49.08;101090.52;1763714;80;21445;-75
2021/01/21 10:20:25;;;;;;;33.05;14.70;;;;;;;5.41;49.08;101089.52;1771426;79;21632;-77
2021/01/21 10:23:00;;;;;;;29.37;15.30;;;;;;;5.41;48.99;101092.66;1759086;80;21221;-76
2021/01/21 10:25:28;;;;;;;32.60;15.43;;;;;;;5.29;49.09;101085.06;1775014;78;21207;-77
2021/01/21 10:27:56;;;;;;;33.38;16.73;;;;;;;5.22;49.21;101087.77;1775955;79;21249;-76
2021/01/21 10:30:28;;;;;;;32.55;14.75;;;;;;;5.24;49.18;101089.86;1772525;79;21204;-79
2021/01/21 10:32:59;;;;;;;27.17;13.83;;;;;;;5.28;49.18;101084.22;1770006;79;22536;-76
2021/01/21 10:35:28;;;;;;;31.80;16.27;;;;;;;5.24;49.17;101087.20;1777747;79;21207;-78
2021/01/21 10:37:56;;;;;;;37.93;16.90;;;;;;;5.20;49.32;101067.13;1776683;79;21269;-76
2021/01/21 10:40:23;;;;;;;32.50;14.98;;;;;;;5.21;49.34;101072.80;1768508;79;21193;-77
2021/01/21 10:42:51;;;;;;;35.50;16.75;;;;;;;5.25;49.27;101071.14;1769852;79;21648;-75
2021/01/21 10:45:18;;;;;;;33.80;16.32;;;;;;;5.14;49.45;101068.89;1751426;80;22094;-77
2021/01/21 10:47:46;;;;;;;44.25;20.08;;;;;;;5.02;49.60;101066.12;1746047;80;21182;-76
2021/01/21 10:50:16;;;;;;;34.53;16.07;;;;;;;4.95;49.80;101068.86;1796903;79;21632;-78
2021/01/21 10:52:43;;;;;;;35.38;16.37;;;;;;;5.02;49.91;101058.65;1771542;79;21195;-78
2021/01/21 10:55:12;;;;;;;20.97;10.50;;;;;;;5.12;49.79;101062.34;1781528;79;21621;-77
2021/01/21 10:57:40;;;;;;;29.55;14.93;;;;;;;5.23;49.69;101058.95;1772581;79;21993;-78
2021/01/21 11:00:09;;;;;;;30.05;15.32;;;;;;;5.25;49.60;101055.69;1785364;79;21248;-78
2021/01/21 11:02:38;;;;;;;34.65;16.48;;;;;;;5.21;49.62;101050.22;1777929;79;21200;-76
2021/01/21 11:05:07;;;;;;;31.68;14.13;;;;;;;5.20;49.70;101052.52;1779404;79;21723;-76
2021/01/21 11:07:35;;;;;;;38.23;17.70;;;;;;;5.17;49.79;101049.59;1784239;79;21636;-78
2021/01/21 11:10:06;;;;;;;36.50;16.70;;;;;;;5.12;49.88;101054.37;1770251;79;21803;-79
2021/01/21 11:12:36;;;;;;;28.42;15.60;;;;;;;5.12;49.93;101053.53;1775727;79;21521;-76
2021/01/21 11:15:06;;;;;;;33.92;16.97;;;;;;;5.20;49.81;101055.17;1778303;79;22203;-76
2021/01/21 11:17:38;;;;;;;28.50;17.50;;;;;;;5.30;49.66;101040.27;1774024;79;21104;-78
2021/01/21 11:20:12;;;;;;;32.42;16.97;;;;;;;5.41;49.42;101043.02;1769203;79;21094;-78
2021/01/21 11:22:42;;;;;;;33.48;17.92;;;;;;;5.52;49.26;101036.44;1774237;79;22404;-76
2021/01/21 11:25:13;;;;;;;31.57;16.30;;;;;;;5.64;49.13;101036.52;1771299;79;21576;-77
2021/01/21 11:27:45;;;;;;;29.63;15.75;;;;;;;5.66;48.98;101031.92;1780294;79;21100;-76
2021/01/21 11:30:16;;;;;;;29.67;15.53;;;;;;;5.53;49.05;101030.16;1770458;79;21102;-77
2021/01/21 11:32:45;;;;;;;29.65;17.48;;;;;;;5.47;49.25;101016.48;1779371;79;21624;-77
2021/01/21 11:35:13;;;;;;;24.72;14.58;;;;;;;5.50;49.35;101019.77;1770403;78;21370;-75
2021/01/21 11:37:41;;;;;;;23.02;13.65;;;;;;;5.58;49.25;101023.17;1745486;79;21136;-76
2021/01/21 11:40:10;;;;;;;28.77;16.67;;;;;;;5.59;49.23;101012.94;1782043;79;21588;-75